Time;durP1;ratioP1;P1;durP2;ratioP2;P2;SDS_P1;SDS_P2;PMS_P1;PMS_P2;Temp;Humidity;BMP_temperature;BMP_pressure;BME280_temperature;BME280_humidity;BME280_pressure;Samples;Min_cycle;Max_cycle;Signal;HPM_P1;HPM_P2
2019/06/10 00:00:03;;;;;;;7.7;6.3;;;;;;;16.62;79.41504;960.6436;;;;
2019/06/10 00:02:29;;;;;;;8.1;6.1;;;;;;;16.58;79.41992;960.6124;;;;
2019/06/10 00:04:55;;;;;;;8.1;6;;;;;;;16.57;79.58203;960.6625;;;;
2019/06/10 00:07:20;;;;;;;10.8;6.3;;;;;;;16.57;79.86133;960.7558;;;;
2019/06/10 00:09:45;;;;;;;9.1;6.2;;;;;;;16.56;79.83496;960.7539;;;;
2019/06/10 00:12:10;;;;;;;7.8;5.4;;;;;;;16.64;79.1377;960.7678;;;;
2019/06/10 00:14:35;;;;;;;7.1;5.5;;;;;;;16.72;78.29004;960.7034;;;;
2019/06/10 00:17:00;;;;;;;6.7;5.3;;;;;;;16.85;77.60059;960.6522;;;;
2019/06/10 00:19:25;;;;;;;7;5.4;;;;;;;16.72;78.30176;960.6039;;;;
2019/06/10 00:21:50;;;;;;;8.2;5.9;;;;;;;16.82;77.66406;960.5289;;;;
2019/06/10 00:24:19;;;;;;;7.9;6.2;;;;;;;16.6;78.82813;960.5744;;;;
2019/06/10 00:26:44;;;;;;;8.5;5.9;;;;;;;16.48;79.43652;960.517;;;;
2019/06/10 00:29:09;;;;;;;9.2;6.3;;;;;;;16.48;79.56543;960.4709;;;;
2019/06/10 00:31:34;;;;;;;9.6;7;;;;;;;16.47;79.85547;960.4827;;;;
2019/06/10 00:33:59;;;;;;;7.2;6.3;;;;;;;16.51;79.81543;960.4054;;;;
2019/06/10 00:36:24;;;;;;;7.6;6.2;;;;;;;16.5;79.86035;960.3814;;;;
2019/06/10 00:38:49;;;;;;;7.3;6.4;;;;;;;16.5;80.2334;960.4052;;;;
2019/06/10 00:41:15;;;;;;;8.6;6.4;;;;;;;16.54;80.10156;960.2876;;;;
2019/06/10 00:43:39;;;;;;;8;6.4;;;;;;;16.61;79.33105;960.2281;;;;
2019/06/10 00:46:05;;;;;;;9;6.6;;;;;;;16.6;78.83984;960.2584;;;;
2019/06/10 00:48:30;;;;;;;10.1;7.1;;;;;;;16.6;79.47168;960.2789;;;;
2019/06/10 00:50:55;;;;;;;9.2;6.3;;;;;;;16.54;79.76367;960.2441;;;;
2019/06/10 00:53:24;;;;;;;9.1;6.5;;;;;;;16.4;80.28516;960.2394;;;;
2019/06/10 00:55:49;;;;;;;8.3;6.6;;;;;;;16.54;79.77344;960.1837;;;;
2019/06/10 00:58:14;;;;;;;9.9;6.8;;;;;;;16.42;80.23242;960.1703;;;;
2019/06/10 01:00:39;;;;;;;9.6;6.8;;;;;;;16.35;80.33398;960.1564;;;;
2019/06/10 01:03:05;;;;;;;10.7;6.7;;;;;;;16.55;79.14648;960.0538;;;;
2019/06/10 01:05:30;;;;;;;10.5;6.3;;;;;;;16.61;78.64258;959.931;;;;
2019/06/10 01:07:55;;;;;;;7.8;6.2;;;;;;;16.53;78.87305;959.8276;;;;
2019/06/10 01:10:20;;;;;;;8.6;6.8;;;;;;;16.49;79.05566;959.7266;;;;
2019/06/10 01:12:45;;;;;;;8.7;6.5;;;;;;;16.5;79.13672;959.7249;;;;
2019/06/10 01:15:10;;;;;;;8.5;5.8;;;;;;;16.53;78.89648;959.7338;;;;
2019/06/10 01:17:38;;;;;;;8.6;6.4;;;;;;;16.49;79.16992;959.7241;;;;
2019/06/10 01:20:03;;;;;;;7.1;5.8;;;;;;;16.5;79.18359;959.7767;;;;
2019/06/10 01:22:29;;;;;;;8;5.5;;;;;;;16.55;78.80859;959.9056;;;;
2019/06/10 01:24:54;;;;;;;8;6.2;;;;;;;16.5;79.25391;960.0399;;;;
2019/06/10 01:27:20;;;;;;;7.2;6;;;;;;;16.45;79.30176;960.0754;;;;
2019/06/10 01:29:45;;;;;;;8.6;6.1;;;;;;;16.47;79.7041;960.0762;;;;
2019/06/10 01:32:10;;;;;;;7.1;6;;;;;;;16.48;79.50684;960.0909;;;;
2019/06/10 01:34:35;;;;;;;7.6;5.9;;;;;;;16.51;79.58301;960.1989;;;;
2019/06/10 01:37:00;;;;;;;7.3;5.7;;;;;;;16.46;79.91211;960.245;;;;
2019/06/10 01:39:27;;;;;;;9;5.3;;;;;;;16.6;78.5127;960.2321;;;;
2019/06/10 01:41:52;;;;;;;7.7;5.1;;;;;;;16.71;77.66797;960.1149;;;;
2019/06/10 01:44:20;;;;;;;6.4;5;;;;;;;16.69;77.72363;959.9239;;;;
2019/06/10 01:46:45;;;;;;;6.4;5.3;;;;;;;16.7;78.22852;959.7397;;;;
2019/06/10 01:49:10;;;;;;;7.7;5.5;;;;;;;16.72;77.69531;959.7447;;;;
2019/06/10 01:51:46;;;;;;;6.2;5.1;;;;;;;16.91;76.35059;959.7562;;;;
2019/06/10 01:54:11;;;;;;;8.7;5.4;;;;;;;16.61;77.48926;959.8387;;;;
2019/06/10 01:56:36;;;;;;;7.6;5.4;;;;;;;16.62;77.62891;959.8519;;;;
2019/06/10 01:59:01;;;;;;;9.1;6.3;;;;;;;16.5;78.4834;959.8169;;;;
2019/06/10 02:01:38;;;;;;;9.7;6.6;;;;;;;16.53;78.34863;959.8801;;;;
2019/06/10 02:03:51;;;;;;;9.2;6.4;;;;;;;16.67;77.97754;959.9366;;;;
2019/06/10 02:06:16;;;;;;;9.8;6.6;;;;;;;16.59;78.1377;960.2247;;;;
2019/06/10 02:08:42;;;;;;;7.2;5.6;;;;;;;16.68;77.58301;960.6128;;;;
2019/06/10 02:11:07;;;;;;;7.6;6.2;;;;;;;16.31;79.66309;961.1246;;;;
2019/06/10 02:13:32;;;;;;;9.6;6.8;;;;;;;16.41;80.1123;961.2569;;;;
2019/06/10 02:16:01;;;;;;;8.9;7.4;;;;;;;16.42;80.68555;961.2569;;;;
2019/06/10 02:18:25;;;;;;;10.7;7.7;;;;;;;16.44;80.88672;961.2816;;;;
2019/06/10 02:20:50;;;;;;;11.2;9.3;;;;;;;16.14;82.88379;961.3738;;;;
2019/06/10 02:23:15;;;;;;;11.8;9.2;;;;;;;16.14;83.62988;961.2003;;;;
2019/06/10 02:25:40;;;;;;;11.9;9.2;;;;;;;16.2;82.42969;961.1591;;;;
2019/06/10 02:28:05;;;;;;;12.4;8.9;;;;;;;16.18;83.4502;961.2314;;;;
2019/06/10 02:30:32;;;;;;;9.8;8.5;;;;;;;16.24;83.24121;961.1837;;;;
2019/06/10 02:32:57;;;;;;;11.2;8.6;;;;;;;16.19;83.71094;961.0391;;;;
2019/06/10 02:35:22;;;;;;;10.8;8.4;;;;;;;16.14;84.43457;961.0153;;;;
2019/06/10 02:37:47;;;;;;;11.1;7.8;;;;;;;16.13;85.13184;960.7974;;;;
2019/06/10 02:40:13;;;;;;;12.3;8.5;;;;;;;16.12;86.36621;960.0477;;;;
2019/06/10 02:42:41;;;;;;;14;9.8;;;;;;;16.01;87.68359;959.6335;;;;
2019/06/10 02:45:03;;;;;;;16.2;10.2;;;;;;;;;;;;;
2019/06/10 02:47:29;;;;;;;15;11.5;;;;;;;;;;;;;
2019/06/10 02:49:54;;;;;;;14;11.1;;;;;;;;;;;;;
2019/06/10 02:52:19;;;;;;;14.3;11.1;;;;;;;;;;;;;
2019/06/10 02:54:44;;;;;;;13.1;11;;;;;;;;;;;;;
2019/06/10 02:57:09;;;;;;;15.9;11.8;;;;;;;;;;;;;
2019/06/10 02:59:34;;;;;;;13.9;12.2;;;;;;;;;;;;;
2019/06/10 03:01:59;;;;;;;12.8;10.8;;;;;;;;;;;;;
2019/06/10 03:04:24;;;;;;;11.2;8.7;;;;;;;;;;;;;
2019/06/10 03:06:49;;;;;;;13.5;9.9;;;;;;;;;;;;;
2019/06/10 03:09:14;;;;;;;13;9.7;;;;;;;;;;;;;
2019/06/10 03:11:40;;;;;;;13.9;10.3;;;;;;;;;;;;;
2019/06/10 03:14:05;;;;;;;11.5;10;;;;;;;;;;;;;
2019/06/10 03:16:35;;;;;;;12.2;9.4;;;;;;;;;;;;;
2019/06/10 03:18:56;;;;;;;10.1;8.8;;;;;;;;;;;;;
2019/06/10 03:21:21;;;;;;;11.7;7.8;;;;;;;;;;;;;
2019/06/10 03:23:46;;;;;;;10.5;7.8;;;;;;;;;;;;;
2019/06/10 03:26:11;;;;;;;8.4;6.6;;;;;;;;;;;;;
2019/06/10 03:28:36;;;;;;;8.5;6.6;;;;;;;;;;;;;
2019/06/10 03:31:01;;;;;;;8.7;6.6;;;;;;;;;;;;;
2019/06/10 03:33:26;;;;;;;8.3;7.1;;;;;;;;;;;;;
2019/06/10 03:35:52;;;;;;;9.4;7.7;;;;;;;;;;;;;
2019/06/10 03:38:17;;;;;;;7.8;6.6;;;;;;;;;;;;;
2019/06/10 03:40:42;;;;;;;8.4;6.6;;;;;;;;;;;;;
2019/06/10 03:43:07;;;;;;;8.4;7.4;;;;;;;;;;;;;
2019/06/10 03:45:32;;;;;;;9.9;7.6;;;;;;;;;;;;;
2019/06/10 03:47:57;;;;;;;9.7;8.2;;;;;;;;;;;;;
2019/06/10 03:50:22;;;;;;;11;9.3;;;;;;;;;;;;;
2019/06/10 03:52:49;;;;;;;12.5;9.5;;;;;;;;;;;;;
2019/06/10 03:55:14;;;;;;;10.4;8.8;;;;;;;;;;;;;
2019/06/10 03:57:39;;;;;;;9.3;7.2;;;;;;;;;;;;;
2019/06/10 04:02:27;;;;;;;10.2;9.1;;;;;;;16.04;88.7373;959.0563;;;;
2019/06/10 04:04:53;;;;;;;9.1;7.5;;;;;;;16.13;87.1709;959.2263;;;;
2019/06/10 04:07:18;;;;;;;7.6;6.8;;;;;;;16.05;86.15234;959.3998;;;;
2019/06/10 04:09:43;;;;;;;9.1;7.1;;;;;;;15.94;86.85352;959.3876;;;;
2019/06/10 04:12:08;;;;;;;8.6;7.5;;;;;;;15.93;87.70215;959.3155;;;;
2019/06/10 04:14:33;;;;;;;8.7;7.1;;;;;;;15.96;87.97754;959.3161;;;;
2019/06/10 04:16:58;;;;;;;6.9;6.2;;;;;;;16.15;85.33203;959.4447;;;;
2019/06/10 04:19:23;;;;;;;8.7;6.3;;;;;;;16.07;86.04102;959.5519;;;;
2019/06/10 04:21:48;;;;;;;7.5;6.4;;;;;;;16.06;85.79395;959.5633;;;;
2019/06/10 04:24:13;;;;;;;7;5.5;;;;;;;16;84.71191;959.4614;;;;
2019/06/10 04:26:38;;;;;;;7;5.7;;;;;;;16.06;85.91113;959.5222;;;;
2019/06/10 04:29:03;;;;;;;6.7;4.9;;;;;;;16.03;85.62598;959.5666;;;;
2019/06/10 04:31:29;;;;;;;6.5;5.8;;;;;;;16.09;85.51953;959.467;;;;
2019/06/10 04:33:54;;;;;;;6.1;5.5;;;;;;;16;85.83008;959.5872;;;;
2019/06/10 04:36:19;;;;;;;8.1;5.4;;;;;;;15.97;85.30078;959.5974;;;;
2019/06/10 04:38:45;;;;;;;7.1;5.9;;;;;;;15.87;86.62012;959.7643;;;;
2019/06/10 04:41:10;;;;;;;8.2;5.4;;;;;;;15.77;85.76172;959.7456;;;;
2019/06/10 04:43:35;;;;;;;7.2;5.3;;;;;;;15.89;85.90039;959.577;;;;
2019/06/10 04:46:00;;;;;;;6.6;5.2;;;;;;;15.91;85.70605;959.3622;;;;
2019/06/10 04:48:25;;;;;;;7;5.5;;;;;;;15.81;86.26953;959.2918;;;;
2019/06/10 04:50:55;;;;;;;6.1;5.2;;;;;;;15.88;86.10742;959.207;;;;
2019/06/10 04:53:20;;;;;;;8.1;5.9;;;;;;;16;85.47949;958.9896;;;;
2019/06/10 04:55:45;;;;;;;8.3;6.1;;;;;;;16;85.7002;958.7825;;;;
2019/06/10 04:58:11;;;;;;;9;5.8;;;;;;;16.03;86.48828;958.7859;;;;
2019/06/10 05:00:36;;;;;;;6.8;5.3;;;;;;;16.01;85.39941;958.8401;;;;
2019/06/10 05:03:01;;;;;;;6.4;5.1;;;;;;;16.01;86.44824;959.1279;;;;
2019/06/10 05:05:26;;;;;;;6.8;4.9;;;;;;;15.95;85.87793;959.3172;;;;
2019/06/10 05:07:51;;;;;;;6.7;4.6;;;;;;;16.07;84.67676;959.3439;;;;
2019/06/10 05:10:16;;;;;;;6.4;5.1;;;;;;;16.13;84.92285;959.3906;;;;
2019/06/10 05:12:41;;;;;;;6.8;4.9;;;;;;;16.15;85.6123;959.323;;;;
2019/06/10 05:15:06;;;;;;;6.6;5.1;;;;;;;16.02;85.00488;959.3752;;;;
2019/06/10 05:17:31;;;;;;;5.4;4.6;;;;;;;16.26;83.13965;959.3638;;;;
2019/06/10 05:19:56;;;;;;;5.9;4.9;;;;;;;16.3;82.43457;959.375;;;;
2019/06/10 05:22:21;;;;;;;7.1;5.2;;;;;;;16.26;82.37109;959.3834;;;;
2019/06/10 05:24:46;;;;;;;5.9;4.8;;;;;;;16.4;83.36523;959.4802;;;;
2019/06/10 05:27:13;;;;;;;6.8;5;;;;;;;16.36;83.95313;959.5158;;;;
2019/06/10 05:29:38;;;;;;;8.1;5.1;;;;;;;16.44;82.99805;959.5366;;;;
2019/06/10 05:32:03;;;;;;;6.5;5.6;;;;;;;16.25;82.60156;959.6139;;;;
2019/06/10 05:34:28;;;;;;;7.2;5.7;;;;;;;16.18;82.55273;959.6772;;;;
2019/06/10 05:36:53;;;;;;;6.9;5.9;;;;;;;16.26;84.22559;959.8489;;;;
2019/06/10 05:39:20;;;;;;;7.2;5.5;;;;;;;16.39;82.72168;960.185;;;;
2019/06/10 05:41:45;;;;;;;6.6;5.2;;;;;;;16.41;82.83203;960.1669;;;;
2019/06/10 05:44:10;;;;;;;7.7;5.7;;;;;;;16.3;82.84277;960.3596;;;;
2019/06/10 05:46:35;;;;;;;7.2;5.6;;;;;;;16.2;83.47754;960.4166;;;;
2019/06/10 05:49:00;;;;;;;6.7;5.7;;;;;;;16.24;82.98438;960.2972;;;;
2019/06/10 05:51:25;;;;;;;7.7;6;;;;;;;16.17;83.08594;960.2522;;;;
2019/06/10 05:53:50;;;;;;;7.8;5.5;;;;;;;16.17;83.91504;960.1518;;;;
2019/06/10 05:56:15;;;;;;;5.6;5;;;;;;;16.32;83;959.8209;;;;
2019/06/10 05:58:41;;;;;;;6.4;5.3;;;;;;;16.4;82.24512;959.7336;;;;
2019/06/10 06:01:07;;;;;;;6.2;5;;;;;;;16.24;83.75391;959.7489;;;;
2019/06/10 06:03:33;;;;;;;8.9;5.6;;;;;;;16.16;85.66211;959.7639;;;;
2019/06/10 06:05:58;;;;;;;8.1;5.7;;;;;;;16.15;86.04492;959.7003;;;;
2019/06/10 06:08:23;;;;;;;6;5.3;;;;;;;16.13;86.8457;959.5839;;;;
2019/06/10 06:10:49;;;;;;;7.2;5.4;;;;;;;16.29;84.15918;959.5734;;;;
2019/06/10 06:13:15;;;;;;;9;6.2;;;;;;;16;87.03125;959.6077;;;;
2019/06/10 06:15:40;;;;;;;9.8;6.4;;;;;;;16;87.35742;959.6267;;;;
2019/06/10 06:18:05;;;;;;;10.3;7;;;;;;;16.03;87.58398;959.6563;;;;
2019/06/10 06:20:30;;;;;;;7.9;6.3;;;;;;;16.02;87.39551;959.7714;;;;
2019/06/10 06:22:57;;;;;;;7.2;6.2;;;;;;;16.14;87.82715;959.9422;;;;
2019/06/10 06:25:22;;;;;;;7.7;6.4;;;;;;;;;;;;;
2019/06/10 06:27:47;;;;;;;8.2;6.1;;;;;;;;;;;;;
2019/06/10 06:30:12;;;;;;;8.9;6.1;;;;;;;;;;;;;
2019/06/10 06:32:38;;;;;;;8.6;6.7;;;;;;;;;;;;;
2019/06/10 06:35:03;;;;;;;8;6.4;;;;;;;;;;;;;
2019/06/10 06:37:28;;;;;;;8.8;6.8;;;;;;;;;;;;;
2019/06/10 06:39:53;;;;;;;9.1;6.8;;;;;;;;;;;;;
2019/06/10 06:42:18;;;;;;;8.1;6.3;;;;;;;;;;;;;
2019/06/10 06:44:43;;;;;;;8.1;6.2;;;;;;;;;;;;;
2019/06/10 06:47:08;;;;;;;7.3;6.1;;;;;;;;;;;;;
2019/06/10 06:49:33;;;;;;;7.9;7.1;;;;;;;;;;;;;
2019/06/10 06:51:58;;;;;;;11;7.1;;;;;;;;;;;;;
2019/06/10 06:54:23;;;;;;;10.2;6.5;;;;;;;;;;;;;
2019/06/10 06:56:48;;;;;;;8;6.6;;;;;;;;;;;;;
2019/06/10 06:59:13;;;;;;;7.9;6.6;;;;;;;;;;;;;
2019/06/10 07:01:38;;;;;;;9.4;6.3;;;;;;;;;;;;;
2019/06/10 07:04:04;;;;;;;6.8;6.1;;;;;;;;;;;;;
2019/06/10 07:06:29;;;;;;;7.9;6.7;;;;;;;;;;;;;
2019/06/10 07:08:54;;;;;;;8.4;6.5;;;;;;;;;;;;;
2019/06/10 07:11:19;;;;;;;7.7;6.2;;;;;;;;;;;;;
2019/06/10 07:13:46;;;;;;;10;7.2;;;;;;;;;;;;;
2019/06/10 07:16:11;;;;;;;9.2;6.8;;;;;;;;;;;;;
2019/06/10 07:18:36;;;;;;;8.8;6.8;;;;;;;;;;;;;
2019/06/10 07:21:01;;;;;;;8.2;6.6;;;;;;;;;;;;;
2019/06/10 07:23:26;;;;;;;8.8;6.6;;;;;;;;;;;;;
2019/06/10 07:25:51;;;;;;;7.7;6.5;;;;;;;;;;;;;
2019/06/10 07:28:18;;;;;;;6.9;6.2;;;;;;;;;;;;;
2019/06/10 07:30:43;;;;;;;8;7;;;;;;;;;;;;;
2019/06/10 07:33:08;;;;;;;8.7;6.6;;;;;;;;;;;;;
2019/06/10 07:35:33;;;;;;;7.9;7.1;;;;;;;;;;;;;
2019/06/10 07:37:58;;;;;;;7.7;6;;;;;;;;;;;;;
2019/06/10 07:40:23;;;;;;;9.1;6.8;;;;;;;;;;;;;
2019/06/10 07:42:48;;;;;;;8.5;6.7;;;;;;;;;;;;;
2019/06/10 07:45:13;;;;;;;8.7;6.9;;;;;;;;;;;;;
2019/06/10 07:47:38;;;;;;;8.5;7.2;;;;;;;;;;;;;
2019/06/10 07:50:03;;;;;;;7.3;6.2;;;;;;;;;;;;;
2019/06/10 07:52:29;;;;;;;7.5;6.5;;;;;;;;;;;;;
2019/06/10 07:54:54;;;;;;;9.7;6.7;;;;;;;;;;;;;
2019/06/10 07:57:19;;;;;;;8.2;6.7;;;;;;;;;;;;;
2019/06/10 07:59:44;;;;;;;8.1;6.4;;;;;;;;;;;;;
2019/06/10 08:02:09;;;;;;;8.3;6.7;;;;;;;;;;;;;
2019/06/10 08:04:34;;;;;;;7.6;6.1;;;;;;;;;;;;;
2019/06/10 08:07:00;;;;;;;6.3;5.7;;;;;;;;;;;;;
2019/06/10 08:09:25;;;;;;;9.3;6.6;;;;;;;;;;;;;
2019/06/10 08:11:50;;;;;;;8.2;7.1;;;;;;;;;;;;;
2019/06/10 08:14:15;;;;;;;7.6;6.5;;;;;;;;;;;;;
2019/06/10 08:16:40;;;;;;;8.3;6.5;;;;;;;;;;;;;
2019/06/10 08:19:05;;;;;;;8.6;6.3;;;;;;;;;;;;;
2019/06/10 08:21:30;;;;;;;8.5;6.3;;;;;;;;;;;;;
2019/06/10 08:23:55;;;;;;;7.1;6;;;;;;;;;;;;;
2019/06/10 08:26:20;;;;;;;8;5.4;;;;;;;;;;;;;
2019/06/10 08:28:47;;;;;;;7.1;5.6;;;;;;;;;;;;;
2019/06/10 08:31:12;;;;;;;8;5.4;;;;;;;;;;;;;
2019/06/10 08:33:38;;;;;;;7.8;5.5;;;;;;;;;;;;;
2019/06/10 08:36:04;;;;;;;8.2;5.5;;;;;;;;;;;;;
2019/06/10 08:38:29;;;;;;;7.6;5.6;;;;;;;;;;;;;
2019/06/10 08:40:54;;;;;;;8.1;6.1;;;;;;;;;;;;;
2019/06/10 08:43:19;;;;;;;7.9;5.9;;;;;;;;;;;;;
2019/06/10 08:45:44;;;;;;;6.9;6.1;;;;;;;;;;;;;
2019/06/10 08:48:09;;;;;;;7.7;5.3;;;;;;;;;;;;;
2019/06/10 08:50:34;;;;;;;8.3;6;;;;;;;;;;;;;
2019/06/10 08:52:59;;;;;;;7.1;5.7;;;;;;;;;;;;;
2019/06/10 08:55:24;;;;;;;6.9;6.2;;;;;;;;;;;;;
2019/06/10 08:57:49;;;;;;;6.7;5.9;;;;;;;;;;;;;
2019/06/10 09:00:14;;;;;;;7.3;5.3;;;;;;;;;;;;;
2019/06/10 09:02:39;;;;;;;7.2;5.2;;;;;;;;;;;;;
2019/06/10 09:05:04;;;;;;;7;4.9;;;;;;;;;;;;;
2019/06/10 09:07:29;;;;;;;7.4;5.3;;;;;;;;;;;;;
2019/06/10 09:09:55;;;;;;;6.5;4.8;;;;;;;;;;;;;
2019/06/10 09:12:20;;;;;;;6.3;5;;;;;;;;;;;;;
2019/06/10 09:14:45;;;;;;;7.8;5.5;;;;;;;;;;;;;
2019/06/10 09:17:10;;;;;;;6.9;5.2;;;;;;;;;;;;;
2019/06/10 09:19:35;;;;;;;6.8;5.2;;;;;;;;;;;;;
2019/06/10 09:22:00;;;;;;;6.9;5.6;;;;;;;;;;;;;
2019/06/10 09:24:25;;;;;;;6;4.8;;;;;;;;;;;;;
2019/06/10 09:26:50;;;;;;;6.6;5.3;;;;;;;;;;;;;
2019/06/10 09:29:15;;;;;;;6.5;5.1;;;;;;;;;;;;;
2019/06/10 09:31:40;;;;;;;7.3;5.6;;;;;;;;;;;;;
2019/06/10 09:34:05;;;;;;;7.8;5.3;;;;;;;;;;;;;
2019/06/10 09:36:30;;;;;;;8.9;5.7;;;;;;;;;;;;;
2019/06/10 09:38:55;;;;;;;5.9;5.1;;;;;;;;;;;;;
2019/06/10 09:41:20;;;;;;;8.5;5.2;;;;;;;;;;;;;
2019/06/10 09:43:46;;;;;;;7.9;4.9;;;;;;;;;;;;;
2019/06/10 09:46:11;;;;;;;7.7;5.1;;;;;;;;;;;;;
2019/06/10 09:48:36;;;;;;;6.5;5.1;;;;;;;;;;;;;
2019/06/10 09:51:01;;;;;;;7.2;5;;;;;;;;;;;;;
2019/06/10 09:53:26;;;;;;;7.5;5.2;;;;;;;;;;;;;
2019/06/10 09:55:51;;;;;;;7.3;5.6;;;;;;;;;;;;;
2019/06/10 09:58:16;;;;;;;5.7;4.8;;;;;;;;;;;;;
2019/06/10 10:00:42;;;;;;;6.3;5.4;;;;;;;;;;;;;
2019/06/10 10:03:07;;;;;;;8.5;5.3;;;;;;;;;;;;;
2019/06/10 10:05:32;;;;;;;7.3;4.9;;;;;;;;;;;;;
2019/06/10 10:07:57;;;;;;;7.8;5.2;;;;;;;;;;;;;
2019/06/10 10:10:23;;;;;;;6.7;5;;;;;;;;;;;;;
2019/06/10 10:12:48;;;;;;;7.4;5;;;;;;;;;;;;;
2019/06/10 10:15:13;;;;;;;6.6;5.2;;;;;;;;;;;;;
2019/06/10 10:17:38;;;;;;;5.2;4.6;;;;;;;;;;;;;
2019/06/10 10:20:03;;;;;;;7.8;4.9;;;;;;;;;;;;;
2019/06/10 10:22:29;;;;;;;5.8;5;;;;;;;;;;;;;
2019/06/10 10:24:54;;;;;;;6.3;4.7;;;;;;;;;;;;;
2019/06/10 10:27:19;;;;;;;6;4.6;;;;;;;;;;;;;
2019/06/10 10:29:44;;;;;;;7.3;5.3;;;;;;;;;;;;;
2019/06/10 10:32:09;;;;;;;6.9;4.9;;;;;;;;;;;;;
2019/06/10 10:34:34;;;;;;;7.8;5.2;;;;;;;;;;;;;
2019/06/10 10:36:59;;;;;;;7.1;5.3;;;;;;;;;;;;;
2019/06/10 10:39:24;;;;;;;7.6;4.8;;;;;;;;;;;;;
2019/06/10 10:41:49;;;;;;;6.2;4.9;;;;;;;;;;;;;
2019/06/10 10:44:15;;;;;;;6.3;4.3;;;;;;;;;;;;;
2019/06/10 10:46:40;;;;;;;6.8;5;;;;;;;;;;;;;
2019/06/10 10:49:06;;;;;;;5.9;4.5;;;;;;;;;;;;;
2019/06/10 10:51:31;;;;;;;6.1;4.8;;;;;;;;;;;;;
2019/06/10 10:53:57;;;;;;;5.9;5.2;;;;;;;;;;;;;
2019/06/10 10:56:22;;;;;;;7;5.1;;;;;;;;;;;;;
2019/06/10 10:58:47;;;;;;;6.5;4.5;;;;;;;;;;;;;
2019/06/10 11:01:12;;;;;;;5.8;4.9;;;;;;;;;;;;;
2019/06/10 11:03:37;;;;;;;7.6;5.4;;;;;;;;;;;;;
2019/06/10 11:06:03;;;;;;;7.4;5.2;;;;;;;;;;;;;
2019/06/10 11:08:28;;;;;;;6.9;4.9;;;;;;;;;;;;;
2019/06/10 11:10:53;;;;;;;6.7;5.1;;;;;;;;;;;;;
2019/06/10 11:13:18;;;;;;;7;5.1;;;;;;;;;;;;;
2019/06/10 11:15:43;;;;;;;6.5;5.2;;;;;;;;;;;;;
2019/06/10 11:18:08;;;;;;;6;4.5;;;;;;;;;;;;;
2019/06/10 11:20:33;;;;;;;6.8;5;;;;;;;;;;;;;
2019/06/10 11:22:58;;;;;;;6.2;4.7;;;;;;;;;;;;;
2019/06/10 11:25:23;;;;;;;7.1;4.9;;;;;;;;;;;;;
2019/06/10 11:27:48;;;;;;;6.3;4.5;;;;;;;;;;;;;
2019/06/10 11:30:13;;;;;;;6.6;4.5;;;;;;;;;;;;;
2019/06/10 11:32:39;;;;;;;8;5.3;;;;;;;;;;;;;
2019/06/10 11:35:04;;;;;;;7.5;5.4;;;;;;;;;;;;;
2019/06/10 11:37:29;;;;;;;8.2;5.1;;;;;;;;;;;;;
2019/06/10 11:39:54;;;;;;;7.3;5.2;;;;;;;;;;;;;
2019/06/10 11:42:19;;;;;;;7.3;5.5;;;;;;;;;;;;;
2019/06/10 11:44:44;;;;;;;8.2;5.8;;;;;;;;;;;;;
2019/06/10 11:47:10;;;;;;;7.5;4.9;;;;;;;;;;;;;
2019/06/10 11:49:35;;;;;;;7.2;5.4;;;;;;;;;;;;;
2019/06/10 11:52:00;;;;;;;6.1;5;;;;;;;;;;;;;
2019/06/10 11:54:25;;;;;;;7.2;5;;;;;;;;;;;;;
2019/06/10 11:56:50;;;;;;;7.9;6;;;;;;;;;;;;;
2019/06/10 11:59:15;;;;;;;7.7;5.1;;;;;;;;;;;;;
2019/06/10 12:01:40;;;;;;;8.8;4.9;;;;;;;;;;;;;
2019/06/10 12:04:06;;;;;;;7.3;4.9;;;;;;;;;;;;;
2019/06/10 12:06:31;;;;;;;10.4;5.4;;;;;;;;;;;;;
2019/06/10 12:08:56;;;;;;;6.5;5.1;;;;;;;;;;;;;
2019/06/10 12:11:21;;;;;;;7.3;5.1;;;;;;;;;;;;;
2019/06/10 12:13:46;;;;;;;7.3;5;;;;;;;;;;;;;
2019/06/10 12:16:11;;;;;;;6.9;5.2;;;;;;;;;;;;;
2019/06/10 12:18:36;;;;;;;8.3;5.6;;;;;;;;;;;;;
2019/06/10 12:21:01;;;;;;;7.2;5.8;;;;;;;;;;;;;
2019/06/10 12:23:27;;;;;;;8.5;5.8;;;;;;;;;;;;;
2019/06/10 12:25:52;;;;;;;8.4;5.3;;;;;;;;;;;;;
2019/06/10 12:28:17;;;;;;;8.9;5.3;;;;;;;;;;;;;
2019/06/10 12:30:42;;;;;;;5.9;4.3;;;;;;;;;;;;;
2019/06/10 12:33:07;;;;;;;8.8;5.2;;;;;;;;;;;;;
2019/06/10 12:35:32;;;;;;;8.8;5.6;;;;;;;;;;;;;
2019/06/10 12:37:57;;;;;;;8.2;5.2;;;;;;;;;;;;;
2019/06/10 12:40:22;;;;;;;8.5;4.8;;;;;;;;;;;;;
2019/06/10 12:42:47;;;;;;;7.9;4.8;;;;;;;;;;;;;
2019/06/10 12:45:12;;;;;;;7.9;4.9;;;;;;;;;;;;;
2019/06/10 12:47:37;;;;;;;8.7;5.6;;;;;;;;;;;;;
2019/06/10 12:50:02;;;;;;;8.1;5.3;;;;;;;;;;;;;
2019/06/10 12:52:28;;;;;;;8.3;4.9;;;;;;;;;;;;;
2019/06/10 12:54:53;;;;;;;9.1;5;;;;;;;;;;;;;
2019/06/10 12:57:18;;;;;;;7.7;5;;;;;;;;;;;;;
2019/06/10 12:59:43;;;;;;;6.7;4.4;;;;;;;;;;;;;
2019/06/10 13:02:08;;;;;;;9.2;5.1;;;;;;;;;;;;;
2019/06/10 13:04:34;;;;;;;7.4;5.2;;;;;;;;;;;;;
2019/06/10 13:06:59;;;;;;;7.7;4.9;;;;;;;;;;;;;
2019/06/10 13:09:25;;;;;;;8;4;;;;;;;;;;;;;
2019/06/10 13:11:50;;;;;;;7.6;5.4;;;;;;;;;;;;;
2019/06/10 13:14:15;;;;;;;10.1;5.4;;;;;;;;;;;;;
2019/06/10 13:16:40;;;;;;;6.9;4.5;;;;;;;;;;;;;
2019/06/10 13:19:06;;;;;;;10;5.4;;;;;;;;;;;;;
2019/06/10 13:21:31;;;;;;;7.1;4.7;;;;;;;;;;;;;
2019/06/10 13:23:56;;;;;;;9.2;5;;;;;;;;;;;;;
2019/06/10 13:26:21;;;;;;;7.8;4.9;;;;;;;;;;;;;
2019/06/10 13:28:46;;;;;;;9;4.3;;;;;;;;;;;;;
2019/06/10 13:31:12;;;;;;;7.6;4;;;;;;;;;;;;;
2019/06/10 13:33:37;;;;;;;9.9;4.2;;;;;;;;;;;;;
2019/06/10 13:36:02;;;;;;;8.7;3.6;;;;;;;;;;;;;
2019/06/10 13:38:27;;;;;;;8.4;4.2;;;;;;;;;;;;;
2019/06/10 13:40:53;;;;;;;6.9;4.3;;;;;;;;;;;;;
2019/06/10 13:43:18;;;;;;;6.3;4.3;;;;;;;;;;;;;
2019/06/10 13:45:43;;;;;;;8;4.2;;;;;;;;;;;;;
2019/06/10 13:48:08;;;;;;;8;4.5;;;;;;;;;;;;;
2019/06/10 13:50:33;;;;;;;6.9;3.8;;;;;;;;;;;;;
2019/06/10 13:52:58;;;;;;;9.7;3.9;;;;;;;;;;;;;
2019/06/10 13:55:23;;;;;;;6;3.8;;;;;;;;;;;;;
2019/06/10 13:57:48;;;;;;;9.6;3.9;;;;;;;;;;;;;
2019/06/10 14:00:14;;;;;;;7.2;4.3;;;;;;;;;;;;;
2019/06/10 14:02:39;;;;;;;5.3;3.6;;;;;;;;;;;;;
2019/06/10 14:05:04;;;;;;;5.8;3.7;;;;;;;;;;;;;
2019/06/10 14:07:29;;;;;;;7;3.8;;;;;;;;;;;;;
2019/06/10 14:09:54;;;;;;;5.6;3.6;;;;;;;;;;;;;
2019/06/10 14:12:20;;;;;;;5.7;3.1;;;;;;;;;;;;;
2019/06/10 14:14:45;;;;;;;5.5;3.8;;;;;;;;;;;;;
2019/06/10 14:17:10;;;;;;;6;3.5;;;;;;;;;;;;;
2019/06/10 14:19:35;;;;;;;7.6;3.6;;;;;;;;;;;;;
2019/06/10 14:22:00;;;;;;;7.6;3.3;;;;;;;;;;;;;
2019/06/10 14:24:25;;;;;;;7;3.5;;;;;;;;;;;;;
2019/06/10 14:26:50;;;;;;;6.8;3.5;;;;;;;;;;;;;
2019/06/10 14:29:15;;;;;;;6.2;3.1;;;;;;;;;;;;;
2019/06/10 14:31:40;;;;;;;5.3;3.1;;;;;;;;;;;;;
2019/06/10 14:34:05;;;;;;;6.4;3.1;;;;;;;;;;;;;
2019/06/10 14:36:30;;;;;;;6.3;2.8;;;;;;;;;;;;;
2019/06/10 14:38:56;;;;;;;8.5;3.3;;;;;;;;;;;;;
2019/06/10 14:41:21;;;;;;;7;3.1;;;;;;;;;;;;;
2019/06/10 14:43:46;;;;;;;9.7;3.5;;;;;;;;;;;;;
2019/06/10 14:46:11;;;;;;;7.9;3.2;;;;;;;;;;;;;
2019/06/10 14:48:37;;;;;;;7;3.3;;;;;;;;;;;;;
2019/06/10 14:51:02;;;;;;;6.7;3.4;;;;;;;;;;;;;
2019/06/10 14:53:29;;;;;;;6.5;3.7;;;;;;;;;;;;;
2019/06/10 14:55:54;;;;;;;7.2;3.5;;;;;;;;;;;;;
2019/06/10 14:58:19;;;;;;;7.7;3.5;;;;;;;;;;;;;
2019/06/10 15:00:44;;;;;;;8.5;3.7;;;;;;;;;;;;;
2019/06/10 15:03:09;;;;;;;7.2;3.6;;;;;;;;;;;;;
2019/06/10 15:05:34;;;;;;;5.6;4.1;;;;;;;;;;;;;
2019/06/10 15:07:59;;;;;;;6.2;3.5;;;;;;;;;;;;;
2019/06/10 15:10:24;;;;;;;6.8;3.8;;;;;;;;;;;;;
2019/06/10 15:12:49;;;;;;;7.7;4.7;;;;;;;;;;;;;
2019/06/10 15:15:14;;;;;;;7.8;4.2;;;;;;;;;;;;;
2019/06/10 15:17:39;;;;;;;8.7;4.5;;;;;;;;;;;;;
2019/06/10 15:20:04;;;;;;;8.4;4.8;;;;;;;;;;;;;
2019/06/10 15:22:30;;;;;;;9;4.9;;;;;;;;;;;;;
2019/06/10 15:24:55;;;;;;;10.6;5.1;;;;;;;;;;;;;
2019/06/10 15:27:20;;;;;;;9.8;5.2;;;;;;;;;;;;;
2019/06/10 15:29:45;;;;;;;10.8;5.4;;;;;;;;;;;;;
2019/06/10 15:32:11;;;;;;;13.3;6.4;;;;;;;;;;;;;
2019/06/10 15:34:36;;;;;;;21.6;8.5;;;;;;;;;;;;;
2019/06/10 15:37:01;;;;;;;16.6;8.5;;;;;;;;;;;;;
2019/06/10 15:39:26;;;;;;;16.8;7;;;;;;;;;;;;;
2019/06/10 15:41:51;;;;;;;20.7;6.5;;;;;;;;;;;;;
2019/06/10 15:44:16;;;;;;;8.9;3.2;;;;;;;;;;;;;
2019/06/10 15:46:41;;;;;;;11.7;3.9;;;;;;;;;;;;;
2019/06/10 15:49:06;;;;;;;8.5;3.6;;;;;;;;;;;;;
2019/06/10 15:51:31;;;;;;;8;3.6;;;;;;;;;;;;;
2019/06/10 15:53:59;;;;;;;8.4;4;;;;;;;;;;;;;
2019/06/10 15:56:24;;;;;;;8.2;3.3;;;;;;;;;;;;;
2019/06/10 15:58:49;;;;;;;6.5;2.9;;;;;;;;;;;;;
2019/06/10 16:01:14;;;;;;;5.5;2.9;;;;;;;;;;;;;
2019/06/10 16:03:41;;;;;;;5.9;3.4;;;;;;;;;;;;;
2019/06/10 16:06:06;;;;;;;5.5;2.8;;;;;;;;;;;;;
2019/06/10 16:08:31;;;;;;;5.4;2.7;;;;;;;;;;;;;
2019/06/10 16:10:56;;;;;;;6.8;3.3;;;;;;;;;;;;;
2019/06/10 16:13:22;;;;;;;6;3;;;;;;;;;;;;;
2019/06/10 16:15:47;;;;;;;9.6;3.6;;;;;;;;;;;;;
2019/06/10 16:18:12;;;;;;;8.6;4.4;;;;;;;;;;;;;
2019/06/10 16:20:37;;;;;;;8.5;4.1;;;;;;;;;;;;;
2019/06/10 16:23:02;;;;;;;7.6;3.8;;;;;;;;;;;;;
2019/06/10 16:25:27;;;;;;;6.5;3.6;;;;;;;;;;;;;
2019/06/10 16:27:52;;;;;;;5.5;3.3;;;;;;;;;;;;;
2019/06/10 16:30:17;;;;;;;8.5;4.2;;;;;;;;;;;;;
2019/06/10 16:32:42;;;;;;;8.2;4.6;;;;;;;;;;;;;
2019/06/10 16:35:07;;;;;;;8;4.2;;;;;;;;;;;;;
2019/06/10 16:37:32;;;;;;;7.4;4.4;;;;;;;;;;;;;
2019/06/10 16:39:58;;;;;;;7.6;4.6;;;;;;;;;;;;;
2019/06/10 16:42:23;;;;;;;9;4.5;;;;;;;;;;;;;
2019/06/10 16:44:48;;;;;;;8.9;4.6;;;;;;;;;;;;;
2019/06/10 16:47:13;;;;;;;5.9;4.5;;;;;;;;;;;;;
2019/06/10 16:49:38;;;;;;;8.5;4.4;;;;;;;;;;;;;
2019/06/10 16:52:03;;;;;;;8.4;4.9;;;;;;;;;;;;;
2019/06/10 16:54:28;;;;;;;9.6;4.7;;;;;;;;;;;;;
2019/06/10 16:56:53;;;;;;;7.3;4.1;;;;;;;;;;;;;
2019/06/10 16:59:18;;;;;;;6.6;4.3;;;;;;;;;;;;;
2019/06/10 17:01:43;;;;;;;9.6;4.6;;;;;;;;;;;;;
2019/06/10 17:04:08;;;;;;;8.8;4.7;;;;;;;;;;;;;
2019/06/10 17:06:33;;;;;;;7.8;4.4;;;;;;;;;;;;;
2019/06/10 17:08:59;;;;;;;5.1;3.2;;;;;;;;;;;;;
2019/06/10 17:11:24;;;;;;;7.3;3.8;;;;;;;;;;;;;
2019/06/10 17:13:49;;;;;;;5.3;3.3;;;;;;;;;;;;;
2019/06/10 17:16:14;;;;;;;4.5;2.8;;;;;;;;;;;;;
2019/06/10 17:18:39;;;;;;;5;2.8;;;;;;;;;;;;;
2019/06/10 17:21:04;;;;;;;6.8;3.3;;;;;;;;;;;;;
2019/06/10 17:23:29;;;;;;;5.5;3.8;;;;;;;;;;;;;
2019/06/10 17:25:54;;;;;;;6;3.3;;;;;;;;;;;;;
2019/06/10 17:28:19;;;;;;;5.5;3.1;;;;;;;;;;;;;
2019/06/10 17:30:44;;;;;;;4.8;3.4;;;;;;;;;;;;;
2019/06/10 17:33:10;;;;;;;5.7;3.1;;;;;;;;;;;;;
2019/06/10 17:35:35;;;;;;;5.1;3;;;;;;;;;;;;;
2019/06/10 17:38:01;;;;;;;4.3;3;;;;;;;;;;;;;
2019/06/10 17:40:26;;;;;;;5.8;2.7;;;;;;;;;;;;;
2019/06/10 17:42:51;;;;;;;6.5;3.5;;;;;;;;;;;;;
2019/06/10 17:45:16;;;;;;;6;3.7;;;;;;;;;;;;;
2019/06/10 17:47:41;;;;;;;7.6;3.3;;;;;;;;;;;;;
2019/06/10 17:50:06;;;;;;;6;3.3;;;;;;;;;;;;;
2019/06/10 17:52:31;;;;;;;5.1;3.4;;;;;;;;;;;;;
2019/06/10 17:55:02;;;;;;;6.8;3.5;;;;;;;;;;;;;
2019/06/10 17:57:27;;;;;;;6.6;3.7;;;;;;;;;;;;;
2019/06/10 17:59:52;;;;;;;6.4;3.5;;;;;;;;;;;;;
2019/06/10 18:02:18;;;;;;;5.9;3.7;;;;;;;;;;;;;
2019/06/10 18:04:43;;;;;;;6.3;3.8;;;;;;;;;;;;;
2019/06/10 18:07:08;;;;;;;7.6;3.9;;;;;;;;;;;;;
2019/06/10 18:09:33;;;;;;;5.5;3.7;;;;;;;;;;;;;
2019/06/10 18:11:58;;;;;;;5.8;3.1;;;;;;;;;;;;;
2019/06/10 18:14:23;;;;;;;5.9;3.1;;;;;;;;;;;;;
2019/06/10 18:16:52;;;;;;;7;3.3;;;;;;;;;;;;;